Time;durP1;ratioP1;P1;durP2;ratioP2;P2;SDS_P1;SDS_P2;PMS_P1;PMS_P2;Temp;Humidity;BMP_temperature;BMP_pressure;BME280_temperature;BME280_humidity;BME280_pressure;Samples;Min_cycle;Max_cycle;Signal;HPM_P1;HPM_P2
2020/11/14 00:00:52;;;;;;;4.5;3.15;;;;;;;6.52;71.40137;95742.77;;;;
2020/11/14 00:01:53;;;;;;;4.5;3.15;;;;;;;6.52;71.40137;95742.77;;;;
2020/11/14 00:02:53;;;;;;;4.5;3.15;;;;;;;6.52;71.40137;95742.77;;;;
2020/11/14 00:03:54;;;;;;;4.5;3.15;;;;;;;6.52;71.40137;95742.77;;;;
2020/11/14 00:04:54;;;;;;;3.6;3;;;;;;;6.55;71.45898;95740.09;;;;
2020/11/14 00:05:55;;;;;;;3.6;3;;;;;;;6.55;71.45898;95740.09;;;;
2020/11/14 00:06:55;;;;;;;3.6;3;;;;;;;6.55;71.45898;95740.09;;;;
2020/11/14 00:07:56;;;;;;;3.6;3;;;;;;;6.55;71.45898;95740.09;;;;
2020/11/14 00:08:56;;;;;;;3.6;3;;;;;;;6.55;71.45898;95740.09;;;;
2020/11/14 00:09:57;;;;;;;3.6;3;;;;;;;6.55;71.45898;95740.09;;;;
2020/11/14 00:10:57;;;;;;;3.6;3;;;;;;;6.55;71.45898;95740.09;;;;
2020/11/14 00:11:58;;;;;;;3.6;3;;;;;;;6.55;71.45898;95740.09;;;;
2020/11/14 00:12:58;;;;;;;3.6;3;;;;;;;6.55;71.45898;95740.09;;;;
2020/11/14 00:13:59;;;;;;;3.6;3;;;;;;;6.55;71.45898;95740.09;;;;
2020/11/14 00:14:59;;;;;;;3.6;3;;;;;;;6.55;71.45898;95740.09;;;;
2020/11/14 00:16:00;;;;;;;7.25;3.65;;;;;;;6.61;71.46875;95732.18;;;;
2020/11/14 00:17:01;;;;;;;7.25;3.65;;;;;;;6.61;71.46875;95732.18;;;;
2020/11/14 00:18:01;;;;;;;7.25;3.65;;;;;;;6.61;71.46875;95732.18;;;;
2020/11/14 00:19:02;;;;;;;7.25;3.65;;;;;;;6.61;71.46875;95732.18;;;;
2020/11/14 00:20:02;;;;;;;7.25;3.65;;;;;;;6.61;71.46875;95732.18;;;;
2020/11/14 00:21:03;;;;;;;7.25;3.65;;;;;;;6.61;71.46875;95732.18;;;;
2020/11/14 00:22:04;;;;;;;7.25;3.65;;;;;;;6.61;71.46875;95732.18;;;;
2020/11/14 00:23:04;;;;;;;7.25;3.65;;;;;;;6.61;71.46875;95732.18;;;;
2020/11/14 00:24:05;;;;;;;7.25;3.65;;;;;;;6.61;71.46875;95732.18;;;;
2020/11/14 00:25:06;;;;;;;7.25;3.65;;;;;;;6.61;71.46875;95732.18;;;;
2020/11/14 00:26:06;;;;;;;4.4;3.15;;;;;;;6.68;71.68457;95738.31;;;;
2020/11/14 00:27:07;;;;;;;4.4;3.15;;;;;;;6.68;71.68457;95738.31;;;;
2020/11/14 00:28:07;;;;;;;4.4;3.15;;;;;;;6.68;71.68457;95738.31;;;;
2020/11/14 00:29:08;;;;;;;4.4;3.15;;;;;;;6.68;71.68457;95738.31;;;;
2020/11/14 00:30:08;;;;;;;4.4;3.15;;;;;;;6.68;71.68457;95738.31;;;;
2020/11/14 00:31:09;;;;;;;4.4;3.15;;;;;;;6.68;71.68457;95738.31;;;;
2020/11/14 00:32:09;;;;;;;4.4;3.15;;;;;;;6.68;71.68457;95738.31;;;;
2020/11/14 00:33:10;;;;;;;4.4;3.15;;;;;;;6.68;71.68457;95738.31;;;;
2020/11/14 00:34:10;;;;;;;4.4;3.15;;;;;;;6.68;71.68457;95738.31;;;;
2020/11/14 00:35:11;;;;;;;4.4;3.15;;;;;;;6.68;71.68457;95738.31;;;;
2020/11/14 00:36:11;;;;;;;4.4;3.15;;;;;;;6.68;71.68457;95738.31;;;;
2020/11/14 00:37:12;;;;;;;3.65;3.05;;;;;;;6.75;71.61035;95729.85;;;;
2020/11/14 00:38:13;;;;;;;3.65;3.05;;;;;;;6.75;71.61035;95729.85;;;;
2020/11/14 00:39:13;;;;;;;3.65;3.05;;;;;;;6.75;71.61035;95729.85;;;;
2020/11/14 00:40:13;;;;;;;3.65;3.05;;;;;;;6.75;71.61035;95729.85;;;;
2020/11/14 00:41:14;;;;;;;3.65;3.05;;;;;;;6.75;71.61035;95729.85;;;;
2020/11/14 00:42:14;;;;;;;3.65;3.05;;;;;;;6.75;71.61035;95729.85;;;;
2020/11/14 00:43:15;;;;;;;3.65;3.05;;;;;;;6.75;71.61035;95729.85;;;;
2020/11/14 00:44:15;;;;;;;3.65;3.05;;;;;;;6.75;71.61035;95729.85;;;;
2020/11/14 00:45:16;;;;;;;3.65;3.05;;;;;;;6.75;71.61035;95729.85;;;;
2020/11/14 00:46:16;;;;;;;3.65;3.05;;;;;;;6.75;71.61035;95729.85;;;;
2020/11/14 00:47:17;;;;;;;3.65;2.7;;;;;;;6.73;71.79785;95730.98;;;;
2020/11/14 00:48:17;;;;;;;3.65;2.7;;;;;;;6.73;71.79785;95730.98;;;;
2020/11/14 00:49:18;;;;;;;3.65;2.7;;;;;;;6.73;71.79785;95730.98;;;;
2020/11/14 00:50:19;;;;;;;3.65;2.7;;;;;;;6.73;71.79785;95730.98;;;;
2020/11/14 00:51:19;;;;;;;3.65;2.7;;;;;;;6.73;71.79785;95730.98;;;;
2020/11/14 00:52:20;;;;;;;3.65;2.7;;;;;;;6.73;71.79785;95730.98;;;;
2020/11/14 00:53:20;;;;;;;3.65;2.7;;;;;;;6.73;71.79785;95730.98;;;;
2020/11/14 00:54:21;;;;;;;3.65;2.7;;;;;;;6.73;71.79785;95730.98;;;;
2020/11/14 00:55:21;;;;;;;3.65;2.7;;;;;;;6.73;71.79785;95730.98;;;;
2020/11/14 00:56:22;;;;;;;3.65;2.7;;;;;;;6.73;71.79785;95730.98;;;;
2020/11/14 00:57:22;;;;;;;3.65;2.7;;;;;;;6.73;71.79785;95730.98;;;;
2020/11/14 00:58:23;;;;;;;6.85;2.6;;;;;;;6.89;71.96289;95709.56;;;;
2020/11/14 00:59:23;;;;;;;6.85;2.6;;;;;;;6.89;71.96289;95709.56;;;;
2020/11/14 01:00:24;;;;;;;6.85;2.6;;;;;;;6.89;71.96289;95709.56;;;;
2020/11/14 01:01:24;;;;;;;6.85;2.6;;;;;;;6.89;71.96289;95709.56;;;;
2020/11/14 01:02:25;;;;;;;6.85;2.6;;;;;;;6.89;71.96289;95709.56;;;;
2020/11/14 01:03:25;;;;;;;6.85;2.6;;;;;;;6.89;71.96289;95709.56;;;;
2020/11/14 01:04:26;;;;;;;6.85;2.6;;;;;;;6.89;71.96289;95709.56;;;;
2020/11/14 01:05:26;;;;;;;6.85;2.6;;;;;;;6.89;71.96289;95709.56;;;;
2020/11/14 01:06:27;;;;;;;6.85;2.6;;;;;;;6.89;71.96289;95709.56;;;;
2020/11/14 01:07:28;;;;;;;6.85;2.6;;;;;;;6.89;71.96289;95709.56;;;;
2020/11/14 01:08:28;;;;;;;2.8;2.2;;;;;;;7.04;71.95605;95692.36;;;;
2020/11/14 01:09:29;;;;;;;2.8;2.2;;;;;;;7.04;71.95605;95692.36;;;;
2020/11/14 01:10:29;;;;;;;2.8;2.2;;;;;;;7.04;71.95605;95692.36;;;;
2020/11/14 01:11:30;;;;;;;2.8;2.2;;;;;;;7.04;71.95605;95692.36;;;;
2020/11/14 01:12:30;;;;;;;2.8;2.2;;;;;;;7.04;71.95605;95692.36;;;;
2020/11/14 01:13:31;;;;;;;2.8;2.2;;;;;;;7.04;71.95605;95692.36;;;;
2020/11/14 01:14:31;;;;;;;2.8;2.2;;;;;;;7.04;71.95605;95692.36;;;;
2020/11/14 01:15:32;;;;;;;2.8;2.2;;;;;;;7.04;71.95605;95692.36;;;;
2020/11/14 01:16:32;;;;;;;2.8;2.2;;;;;;;7.04;71.95605;95692.36;;;;
2020/11/14 01:17:33;;;;;;;2.8;2.2;;;;;;;7.04;71.95605;95692.36;;;;
2020/11/14 01:18:33;;;;;;;2.8;2.2;;;;;;;7.04;71.95605;95692.36;;;;
2020/11/14 01:19:34;;;;;;;3.2;2.15;;;;;;;7.28;71.86719;95692.7;;;;
2020/11/14 01:20:34;;;;;;;3.2;2.15;;;;;;;7.28;71.86719;95692.7;;;;
2020/11/14 01:21:37;;;;;;;3.2;2.15;;;;;;;7.28;71.86719;95692.7;;;;
2020/11/14 01:22:38;;;;;;;3.2;2.15;;;;;;;7.28;71.86719;95692.7;;;;
2020/11/14 01:23:38;;;;;;;3.2;2.15;;;;;;;7.28;71.86719;95692.7;;;;
2020/11/14 01:24:40;;;;;;;3.2;2.15;;;;;;;7.28;71.86719;95692.7;;;;
2020/11/14 01:25:41;;;;;;;3.2;2.15;;;;;;;7.28;71.86719;95692.7;;;;
2020/11/14 01:26:41;;;;;;;3.2;2.15;;;;;;;7.28;71.86719;95692.7;;;;
2020/11/14 01:27:42;;;;;;;3.2;2.15;;;;;;;7.28;71.86719;95692.7;;;;
2020/11/14 01:28:42;;;;;;;3.2;2.15;;;;;;;7.28;71.86719;95692.7;;;;
2020/11/14 01:29:43;;;;;;;3.2;2.15;;;;;;;7.28;71.86719;95692.7;;;;
2020/11/14 01:30:43;;;;;;;3.35;2.4;;;;;;;7.28;71.89941;95692.7;;;;
2020/11/14 01:31:44;;;;;;;3.35;2.4;;;;;;;7.28;71.89941;95692.7;;;;
2020/11/14 01:32:44;;;;;;;3.35;2.4;;;;;;;7.28;71.89941;95692.7;;;;
2020/11/14 01:33:45;;;;;;;3.35;2.4;;;;;;;7.28;71.89941;95692.7;;;;
2020/11/14 01:34:45;;;;;;;3.35;2.4;;;;;;;7.28;71.89941;95692.7;;;;
2020/11/14 01:35:46;;;;;;;3.35;2.4;;;;;;;7.28;71.89941;95692.7;;;;
2020/11/14 01:36:46;;;;;;;3.35;2.4;;;;;;;7.28;71.89941;95692.7;;;;
2020/11/14 01:37:47;;;;;;;3.35;2.4;;;;;;;7.28;71.89941;95692.7;;;;
2020/11/14 01:38:47;;;;;;;3.35;2.4;;;;;;;7.28;71.89941;95692.7;;;;
2020/11/14 01:39:48;;;;;;;3.35;2.4;;;;;;;7.28;71.89941;95692.7;;;;
2020/11/14 01:40:48;;;;;;;2.8;2.3;;;;;;;7.17;71.96582;95686.6;;;;
2020/11/14 01:41:49;;;;;;;2.8;2.3;;;;;;;7.17;71.96582;95686.6;;;;
2020/11/14 01:42:49;;;;;;;2.8;2.3;;;;;;;7.17;71.96582;95686.6;;;;
2020/11/14 01:43:50;;;;;;;2.8;2.3;;;;;;;7.17;71.96582;95686.6;;;;
2020/11/14 01:44:50;;;;;;;2.8;2.3;;;;;;;7.17;71.96582;95686.6;;;;
2020/11/14 01:45:51;;;;;;;2.8;2.3;;;;;;;7.17;71.96582;95686.6;;;;
2020/11/14 01:46:51;;;;;;;2.8;2.3;;;;;;;7.17;71.96582;95686.6;;;;
2020/11/14 01:47:52;;;;;;;2.8;2.3;;;;;;;7.17;71.96582;95686.6;;;;
2020/11/14 01:48:52;;;;;;;2.8;2.3;;;;;;;7.17;71.96582;95686.6;;;;
2020/11/14 01:49:53;;;;;;;2.8;2.3;;;;;;;7.17;71.96582;95686.6;;;;
2020/11/14 01:50:53;;;;;;;2.8;2.3;;;;;;;7.17;71.96582;95686.6;;;;
2020/11/14 01:51:54;;;;;;;2.95;2.1;;;;;;;6.97;72.25098;95695.14;;;;
2020/11/14 01:53:03;;;;;;;2.95;2.1;;;;;;;6.97;72.25098;95695.14;;;;
2020/11/14 01:54:03;;;;;;;2.95;2.1;;;;;;;6.97;72.25098;95695.14;;;;
2020/11/14 01:55:04;;;;;;;2.95;2.1;;;;;;;6.97;72.25098;95695.14;;;;
2020/11/14 01:56:04;;;;;;;2.95;2.1;;;;;;;6.97;72.25098;95695.14;;;;
2020/11/14 01:57:05;;;;;;;2.95;2.1;;;;;;;6.97;72.25098;95695.14;;;;
2020/11/14 01:58:09;;;;;;;2.95;2.1;;;;;;;6.97;72.25098;95695.14;;;;
2020/11/14 01:59:09;;;;;;;2.95;2.1;;;;;;;6.97;72.25098;95695.14;;;;
2020/11/14 02:00:10;;;;;;;2.95;2.1;;;;;;;6.97;72.25098;95695.14;;;;
2020/11/14 02:01:10;;;;;;;2.95;2.1;;;;;;;6.97;72.25098;95695.14;;;;
2020/11/14 02:02:11;;;;;;;3.5;2.35;;;;;;;6.84;72.33691;95689.64;;;;
2020/11/14 02:03:11;;;;;;;3.5;2.35;;;;;;;6.84;72.33691;95689.64;;;;
2020/11/14 02:04:12;;;;;;;3.5;2.35;;;;;;;6.84;72.33691;95689.64;;;;
2020/11/14 02:05:12;;;;;;;3.5;2.35;;;;;;;6.84;72.33691;95689.64;;;;
2020/11/14 02:06:13;;;;;;;3.5;2.35;;;;;;;6.84;72.33691;95689.64;;;;
2020/11/14 02:07:14;;;;;;;3.5;2.35;;;;;;;6.84;72.33691;95689.64;;;;
2020/11/14 02:08:14;;;;;;;3.5;2.35;;;;;;;6.84;72.33691;95689.64;;;;
2020/11/14 02:09:15;;;;;;;3.5;2.35;;;;;;;6.84;72.33691;95689.64;;;;
2020/11/14 02:10:15;;;;;;;3.5;2.35;;;;;;;6.84;72.33691;95689.64;;;;
2020/11/14 02:11:16;;;;;;;3.5;2.35;;;;;;;6.84;72.33691;95689.64;;;;
2020/11/14 02:12:16;;;;;;;3.5;2.35;;;;;;;6.84;72.33691;95689.64;;;;
2020/11/14 02:13:17;;;;;;;2.85;2.05;;;;;;;6.54;72.53906;95682.12;;;;
2020/11/14 02:14:17;;;;;;;2.85;2.05;;;;;;;6.54;72.53906;95682.12;;;;
2020/11/14 02:15:18;;;;;;;2.85;2.05;;;;;;;6.54;72.53906;95682.12;;;;
2020/11/14 02:16:18;;;;;;;2.85;2.05;;;;;;;6.54;72.53906;95682.12;;;;
2020/11/14 02:17:19;;;;;;;2.85;2.05;;;;;;;6.54;72.53906;95682.12;;;;
2020/11/14 02:18:33;;;;;;;2.85;2.05;;;;;;;6.54;72.53906;95682.12;;;;
2020/11/14 02:19:34;;;;;;;2.85;2.05;;;;;;;6.54;72.53906;95682.12;;;;
2020/11/14 02:20:34;;;;;;;2.85;2.05;;;;;;;6.54;72.53906;95682.12;;;;
2020/11/14 02:21:43;;;;;;;2.85;2.05;;;;;;;6.54;72.53906;95682.12;;;;
2020/11/14 02:22:43;;;;;;;2.85;2.05;;;;;;;6.54;72.53906;95682.12;;;;
2020/11/14 02:23:44;;;;;;;2.8;1.9;;;;;;;6.38;72.86426;95676.61;;;;
2020/11/14 02:24:44;;;;;;;2.8;1.9;;;;;;;6.38;72.86426;95676.61;;;;
2020/11/14 02:25:45;;;;;;;2.8;1.9;;;;;;;6.38;72.86426;95676.61;;;;
2020/11/14 02:26:45;;;;;;;2.8;1.9;;;;;;;6.38;72.86426;95676.61;;;;
2020/11/14 02:27:46;;;;;;;2.8;1.9;;;;;;;6.38;72.86426;95676.61;;;;
2020/11/14 02:28:46;;;;;;;2.8;1.9;;;;;;;6.38;72.86426;95676.61;;;;
2020/11/14 02:29:47;;;;;;;2.8;1.9;;;;;;;6.38;72.86426;95676.61;;;;
2020/11/14 02:30:47;;;;;;;2.8;1.9;;;;;;;6.38;72.86426;95676.61;;;;
2020/11/14 02:31:48;;;;;;;2.8;1.9;;;;;;;6.38;72.86426;95676.61;;;;
2020/11/14 02:32:48;;;;;;;2.8;1.9;;;;;;;6.38;72.86426;95676.61;;;;
2020/11/14 02:33:49;;;;;;;2.55;2.1;;;;;;;6.23;73.01855;95674.99;;;;
2020/11/14 02:34:49;;;;;;;2.55;2.1;;;;;;;6.23;73.01855;95674.99;;;;
2020/11/14 02:35:50;;;;;;;2.55;2.1;;;;;;;6.23;73.01855;95674.99;;;;
2020/11/14 02:36:50;;;;;;;2.55;2.1;;;;;;;6.23;73.01855;95674.99;;;;
2020/11/14 02:37:51;;;;;;;2.55;2.1;;;;;;;6.23;73.01855;95674.99;;;;
2020/11/14 02:38:52;;;;;;;2.55;2.1;;;;;;;6.23;73.01855;95674.99;;;;
2020/11/14 02:39:52;;;;;;;2.55;2.1;;;;;;;6.23;73.01855;95674.99;;;;
2020/11/14 02:40:52;;;;;;;2.55;2.1;;;;;;;6.23;73.01855;95674.99;;;;
2020/11/14 02:41:53;;;;;;;2.55;2.1;;;;;;;6.23;73.01855;95674.99;;;;
2020/11/14 02:42:53;;;;;;;2.55;2.1;;;;;;;6.23;73.01855;95674.99;;;;
2020/11/14 02:43:54;;;;;;;2.55;2.1;;;;;;;6.23;73.01855;95674.99;;;;
2020/11/14 02:44:54;;;;;;;3.95;1.85;;;;;;;6.25;73.27637;95678.3;;;;
2020/11/14 02:45:57;;;;;;;3.95;1.85;;;;;;;6.25;73.27637;95678.3;;;;
2020/11/14 02:46:57;;;;;;;3.95;1.85;;;;;;;6.25;73.27637;95678.3;;;;
2020/11/14 02:47:58;;;;;;;3.95;1.85;;;;;;;6.25;73.27637;95678.3;;;;
2020/11/14 02:48:58;;;;;;;3.95;1.85;;;;;;;6.25;73.27637;95678.3;;;;
2020/11/14 02:49:59;;;;;;;3.95;1.85;;;;;;;6.25;73.27637;95678.3;;;;
2020/11/14 02:50:59;;;;;;;3.95;1.85;;;;;;;6.25;73.27637;95678.3;;;;
2020/11/14 02:52:00;;;;;;;3.95;1.85;;;;;;;6.25;73.27637;95678.3;;;;
2020/11/14 02:53:00;;;;;;;3.95;1.85;;;;;;;6.25;73.27637;95678.3;;;;
2020/11/14 02:54:01;;;;;;;3.95;1.85;;;;;;;6.25;73.27637;95678.3;;;;
2020/11/14 02:55:03;;;;;;;3.95;1.85;;;;;;;6.25;73.27637;95678.3;;;;
2020/11/14 02:56:03;;;;;;;2.900001;1.85;;;;;;;6.54;73.11426;95674.49;;;;
2020/11/14 02:57:04;;;;;;;2.900001;1.85;;;;;;;6.54;73.11426;95674.49;;;;
2020/11/14 02:58:04;;;;;;;2.900001;1.85;;;;;;;6.54;73.11426;95674.49;;;;
2020/11/14 02:59:05;;;;;;;2.900001;1.85;;;;;;;6.54;73.11426;95674.49;;;;
2020/11/14 03:00:05;;;;;;;2.900001;1.85;;;;;;;6.54;73.11426;95674.49;;;;
2020/11/14 03:01:12;;;;;;;2.900001;1.85;;;;;;;6.54;73.11426;95674.49;;;;
2020/11/14 03:02:12;;;;;;;2.900001;1.85;;;;;;;6.54;73.11426;95674.49;;;;
2020/11/14 03:03:13;;;;;;;2.900001;1.85;;;;;;;6.54;73.11426;95674.49;;;;
2020/11/14 03:04:13;;;;;;;2.900001;1.85;;;;;;;6.54;73.11426;95674.49;;;;
2020/11/14 03:05:14;;;;;;;2.900001;1.85;;;;;;;6.54;73.11426;95674.49;;;;
2020/11/14 03:06:14;;;;;;;2.9;1.85;;;;;;;6.85;72.83691;95675.17;;;;
2020/11/14 03:07:15;;;;;;;2.9;1.85;;;;;;;6.85;72.83691;95675.17;;;;
2020/11/14 03:08:15;;;;;;;2.9;1.85;;;;;;;6.85;72.83691;95675.17;;;;
2020/11/14 03:09:16;;;;;;;2.9;1.85;;;;;;;6.85;72.83691;95675.17;;;;
2020/11/14 03:10:16;;;;;;;2.9;1.85;;;;;;;6.85;72.83691;95675.17;;;;
2020/11/14 03:11:17;;;;;;;2.9;1.85;;;;;;;6.85;72.83691;95675.17;;;;
2020/11/14 03:12:17;;;;;;;2.9;1.85;;;;;;;6.85;72.83691;95675.17;;;;
2020/11/14 03:13:18;;;;;;;2.9;1.85;;;;;;;6.85;72.83691;95675.17;;;;
2020/11/14 03:14:18;;;;;;;2.9;1.85;;;;;;;6.85;72.83691;95675.17;;;;
2020/11/14 03:15:19;;;;;;;2.9;1.85;;;;;;;6.85;72.83691;95675.17;;;;
2020/11/14 03:16:19;;;;;;;2.9;1.85;;;;;;;6.85;72.83691;95675.17;;;;
2020/11/14 03:17:20;;;;;;;2.8;1.8;;;;;;;7.22;72.58008;95671.53;;;;
2020/11/14 03:18:20;;;;;;;2.8;1.8;;;;;;;7.22;72.58008;95671.53;;;;
2020/11/14 03:19:21;;;;;;;2.8;1.8;;;;;;;7.22;72.58008;95671.53;;;;
2020/11/14 03:20:21;;;;;;;2.8;1.8;;;;;;;7.22;72.58008;95671.53;;;;
2020/11/14 03:21:22;;;;;;;2.8;1.8;;;;;;;7.22;72.58008;95671.53;;;;
2020/11/14 03:22:22;;;;;;;2.8;1.8;;;;;;;7.22;72.58008;95671.53;;;;
2020/11/14 03:23:23;;;;;;;2.8;1.8;;;;;;;7.22;72.58008;95671.53;;;;
2020/11/14 03:24:24;;;;;;;2.8;1.8;;;;;;;7.22;72.58008;95671.53;;;;
2020/11/14 03:25:24;;;;;;;2.8;1.8;;;;;;;7.22;72.58008;95671.53;;;;
2020/11/14 03:26:25;;;;;;;2.8;1.8;;;;;;;7.22;72.58008;95671.53;;;;
2020/11/14 03:27:25;;;;;;;2.45;1.85;;;;;;;7.48;72.5166;95662.66;;;;
2020/11/14 03:28:26;;;;;;;2.45;1.85;;;;;;;7.48;72.5166;95662.66;;;;
2020/11/14 03:29:26;;;;;;;2.45;1.85;;;;;;;7.48;72.5166;95662.66;;;;
2020/11/14 03:30:27;;;;;;;2.45;1.85;;;;;;;7.48;72.5166;95662.66;;;;
2020/11/14 03:31:27;;;;;;;2.45;1.85;;;;;;;7.48;72.5166;95662.66;;;;
2020/11/14 03:32:27;;;;;;;2.45;1.85;;;;;;;7.48;72.5166;95662.66;;;;
2020/11/14 03:33:28;;;;;;;2.45;1.85;;;;;;;7.48;72.5166;95662.66;;;;
2020/11/14 03:34:29;;;;;;;2.45;1.85;;;;;;;7.48;72.5166;95662.66;;;;
2020/11/14 03:35:29;;;;;;;2.45;1.85;;;;;;;7.48;72.5166;95662.66;;;;
2020/11/14 03:36:30;;;;;;;2.45;1.85;;;;;;;7.48;72.5166;95662.66;;;;
2020/11/14 03:37:30;;;;;;;2.45;1.85;;;;;;;7.48;72.5166;95662.66;;;;
2020/11/14 03:38:31;;;;;;;2;1.65;;;;;;;7.66;72.52734;95662.84;;;;
2020/11/14 03:39:31;;;;;;;2;1.65;;;;;;;7.66;72.52734;95662.84;;;;
2020/11/14 03:40:32;;;;;;;2;1.65;;;;;;;7.66;72.52734;95662.84;;;;
2020/11/14 03:41:32;;;;;;;2;1.65;;;;;;;7.66;72.52734;95662.84;;;;
2020/11/14 03:42:33;;;;;;;2;1.65;;;;;;;7.66;72.52734;95662.84;;;;
2020/11/14 03:43:33;;;;;;;2;1.65;;;;;;;7.66;72.52734;95662.84;;;;
2020/11/14 03:44:34;;;;;;;2;1.65;;;;;;;7.66;72.52734;95662.84;;;;
2020/11/14 03:45:34;;;;;;;2;1.65;;;;;;;7.66;72.52734;95662.84;;;;
2020/11/14 03:46:35;;;;;;;2;1.65;;;;;;;7.66;72.52734;95662.84;;;;
2020/11/14 03:47:36;;;;;;;2;1.65;;;;;;;7.66;72.52734;95662.84;;;;
2020/11/14 03:48:36;;;;;;;1.95;1.55;;;;;;;7.85;72.61035;95655.77;;;;
2020/11/14 03:49:37;;;;;;;1.95;1.55;;;;;;;7.85;72.61035;95655.77;;;;
2020/11/14 03:50:37;;;;;;;1.95;1.55;;;;;;;7.85;72.61035;95655.77;;;;
2020/11/14 03:51:38;;;;;;;1.95;1.55;;;;;;;7.85;72.61035;95655.77;;;;
2020/11/14 03:52:38;;;;;;;1.95;1.55;;;;;;;7.85;72.61035;95655.77;;;;
2020/11/14 03:53:39;;;;;;;1.95;1.55;;;;;;;7.85;72.61035;95655.77;;;;
2020/11/14 03:54:39;;;;;;;1.95;1.55;;;;;;;7.85;72.61035;95655.77;;;;
2020/11/14 03:55:40;;;;;;;1.95;1.55;;;;;;;7.85;72.61035;95655.77;;;;
2020/11/14 03:56:40;;;;;;;1.95;1.55;;;;;;;7.85;72.61035;95655.77;;;;
2020/11/14 03:57:41;;;;;;;1.95;1.55;;;;;;;7.85;72.61035;95655.77;;;;
2020/11/14 03:58:41;;;;;;;1.95;1.55;;;;;;;7.85;72.61035;95655.77;;;;
2020/11/14 03:59:42;;;;;;;1.9;1.7;;;;;;;8.04;72.46094;95671.04;;;;
2020/11/14 04:00:42;;;;;;;1.9;1.7;;;;;;;8.04;72.46094;95671.04;;;;
2020/11/14 04:01:43;;;;;;;1.9;1.7;;;;;;;8.04;72.46094;95671.04;;;;
2020/11/14 04:02:43;;;;;;;1.9;1.7;;;;;;;8.04;72.46094;95671.04;;;;
2020/11/14 04:03:44;;;;;;;1.9;1.7;;;;;;;8.04;72.46094;95671.04;;;;
2020/11/14 04:04:44;;;;;;;1.9;1.7;;;;;;;8.04;72.46094;95671.04;;;;
2020/11/14 04:05:45;;;;;;;1.9;1.7;;;;;;;8.04;72.46094;95671.04;;;;
2020/11/14 04:06:45;;;;;;;1.9;1.7;;;;;;;8.04;72.46094;95671.04;;;;
2020/11/14 04:07:46;;;;;;;1.9;1.7;;;;;;;8.04;72.46094;95671.04;;;;
2020/11/14 04:08:46;;;;;;;1.9;1.7;;;;;;;8.04;72.46094;95671.04;;;;
2020/11/14 04:09:47;;;;;;;1.9;1.7;;;;;;;8.04;72.46094;95671.04;;;;
2020/11/14 04:10:47;;;;;;;1.7;1.6;;;;;;;8.14;72.48828;95677.22;;;;
2020/11/14 04:11:48;;;;;;;1.7;1.6;;;;;;;8.14;72.48828;95677.22;;;;
2020/11/14 04:12:49;;;;;;;1.7;1.6;;;;;;;8.14;72.48828;95677.22;;;;
2020/11/14 04:13:49;;;;;;;1.7;1.6;;;;;;;8.14;72.48828;95677.22;;;;
2020/11/14 04:14:50;;;;;;;1.7;1.6;;;;;;;8.14;72.48828;95677.22;;;;
2020/11/14 04:15:51;;;;;;;1.7;1.6;;;;;;;8.14;72.48828;95677.22;;;;
2020/11/14 04:16:51;;;;;;;1.7;1.6;;;;;;;8.14;72.48828;95677.22;;;;
2020/11/14 04:17:52;;;;;;;1.7;1.6;;;;;;;8.14;72.48828;95677.22;;;;
2020/11/14 04:18:52;;;;;;;1.7;1.6;;;;;;;8.14;72.48828;95677.22;;;;
2020/11/14 04:19:53;;;;;;;1.7;1.6;;;;;;;8.14;72.48828;95677.22;;;;
2020/11/14 04:20:53;;;;;;;2;1.8;;;;;;;8.18;72.68652;95684.77;;;;
2020/11/14 04:21:54;;;;;;;2;1.8;;;;;;;8.18;72.68652;95684.77;;;;
2020/11/14 04:22:54;;;;;;;2;1.8;;;;;;;8.18;72.68652;95684.77;;;;
2020/11/14 04:23:55;;;;;;;2;1.8;;;;;;;8.18;72.68652;95684.77;;;;
2020/11/14 04:24:55;;;;;;;2;1.8;;;;;;;8.18;72.68652;95684.77;;;;
2020/11/14 04:25:56;;;;;;;2;1.8;;;;;;;8.18;72.68652;95684.77;;;;
2020/11/14 04:26:57;;;;;;;2;1.8;;;;;;;8.18;72.68652;95684.77;;;;
2020/11/14 04:27:57;;;;;;;2;1.8;;;;;;;8.18;72.68652;95684.77;;;;
2020/11/14 04:28:58;;;;;;;2;1.8;;;;;;;8.18;72.68652;95684.77;;;;
2020/11/14 04:29:59;;;;;;;2;1.8;;;;;;;8.18;72.68652;95684.77;;;;
2020/11/14 04:30:59;;;;;;;2;1.8;;;;;;;8.18;72.68652;95684.77;;;;
2020/11/14 04:31:59;;;;;;;1.75;1.6;;;;;;;8.32;73.08496;95674.71;;;;
2020/11/14 04:33:00;;;;;;;1.75;1.6;;;;;;;8.32;73.08496;95674.71;;;;
2020/11/14 04:34:00;;;;;;;1.75;1.6;;;;;;;8.32;73.08496;95674.71;;;;
2020/11/14 04:35:01;;;;;;;1.75;1.6;;;;;;;8.32;73.08496;95674.71;;;;
2020/11/14 04:36:03;;;;;;;1.75;1.6;;;;;;;8.32;73.08496;95674.71;;;;
2020/11/14 04:39:07;;;;;;;1.75;1.6;;;;;;;8.32;73.08496;95674.71;;;;
2020/11/14 04:40:08;;;;;;;1.75;1.6;;;;;;;8.32;73.08496;95674.71;;;;
2020/11/14 04:41:08;;;;;;;1.75;1.6;;;;;;;8.32;73.08496;95674.71;;;;
2020/11/14 04:42:09;;;;;;;2;1.8;;;;;;;8.46;72.78711;95683.96;;;;
2020/11/14 04:43:09;;;;;;;2;1.8;;;;;;;8.46;72.78711;95683.96;;;;
2020/11/14 04:44:10;;;;;;;2;1.8;;;;;;;8.46;72.78711;95683.96;;;;
2020/11/14 04:45:11;;;;;;;2;1.8;;;;;;;8.46;72.78711;95683.96;;;;
2020/11/14 04:46:11;;;;;;;2;1.8;;;;;;;8.46;72.78711;95683.96;;;;
2020/11/14 04:47:13;;;;;;;2;1.8;;;;;;;8.46;72.78711;95683.96;;;;
2020/11/14 04:48:17;;;;;;;2;1.8;;;;;;;8.46;72.78711;95683.96;;;;
2020/11/14 04:49:18;;;;;;;2;1.8;;;;;;;8.46;72.78711;95683.96;;;;
2020/11/14 04:50:19;;;;;;;2;1.8;;;;;;;8.46;72.78711;95683.96;;;;
2020/11/14 04:51:20;;;;;;;2;1.8;;;;;;;8.46;72.78711;95683.96;;;;
2020/11/14 04:52:21;;;;;;;2;1.8;;;;;;;8.46;72.78711;95683.96;;;;
2020/11/14 04:53:25;;;;;;;2.05;1.6;;;;;;;8.6;72.59766;95694.56;;;;
2020/11/14 04:54:25;;;;;;;2.05;1.6;;;;;;;8.6;72.59766;95694.56;;;;
2020/11/14 04:55:26;;;;;;;2.05;1.6;;;;;;;8.6;72.59766;95694.56;;;;
2020/11/14 04:56:28;;;;;;;2.05;1.6;;;;;;;8.6;72.59766;95694.56;;;;
2020/11/14 04:57:28;;;;;;;2.05;1.6;;;;;;;8.6;72.59766;95694.56;;;;
2020/11/14 04:58:29;;;;;;;2.05;1.6;;;;;;;8.6;72.59766;95694.56;;;;
2020/11/14 04:59:29;;;;;;;2.05;1.6;;;;;;;8.6;72.59766;95694.56;;;;
2020/11/14 05:00:30;;;;;;;2.05;1.6;;;;;;;8.6;72.59766;95694.56;;;;
2020/11/14 05:01:31;;;;;;;2.05;1.6;;;;;;;8.6;72.59766;95694.56;;;;
2020/11/14 05:02:33;;;;;;;2.05;1.6;;;;;;;8.6;72.59766;95694.56;;;;
2020/11/14 05:03:34;;;;;;;3.05;1.7;;;;;;;8.58;72.67969;95697.05;;;;
2020/11/14 05:04:34;;;;;;;3.05;1.7;;;;;;;8.58;72.67969;95697.05;;;;
2020/11/14 05:05:35;;;;;;;3.05;1.7;;;;;;;8.58;72.67969;95697.05;;;;
2020/11/14 05:06:36;;;;;;;3.05;1.7;;;;;;;8.58;72.67969;95697.05;;;;
2020/11/14 05:07:37;;;;;;;3.05;1.7;;;;;;;8.58;72.67969;95697.05;;;;
2020/11/14 05:08:37;;;;;;;3.05;1.7;;;;;;;8.58;72.67969;95697.05;;;;
2020/11/14 05:09:40;;;;;;;3.05;1.7;;;;;;;8.58;72.67969;95697.05;;;;
2020/11/14 05:10:41;;;;;;;3.05;1.7;;;;;;;8.58;72.67969;95697.05;;;;
2020/11/14 05:11:41;;;;;;;3.05;1.7;;;;;;;8.58;72.67969;95697.05;;;;
2020/11/14 05:12:47;;;;;;;3.05;1.7;;;;;;;8.58;72.67969;95697.05;;;;
2020/11/14 05:13:47;;;;;;;3.05;1.7;;;;;;;8.58;72.67969;95697.05;;;;
2020/11/14 05:14:48;;;;;;;2.299999;1.8;;;;;;;8.52;73.31836;95701.54;;;;
2020/11/14 05:15:49;;;;;;;2.299999;1.8;;;;;;;8.52;73.31836;95701.54;;;;
2020/11/14 05:16:49;;;;;;;2.299999;1.8;;;;;;;8.52;73.31836;95701.54;;;;
2020/11/14 05:17:53;;;;;;;2.299999;1.8;;;;;;;8.52;73.31836;95701.54;;;;
2020/11/14 05:18:54;;;;;;;2.299999;1.8;;;;;;;8.52;73.31836;95701.54;;;;
2020/11/14 05:19:55;;;;;;;2.299999;1.8;;;;;;;8.52;73.31836;95701.54;;;;
2020/11/14 05:20:55;;;;;;;2.299999;1.8;;;;;;;8.52;73.31836;95701.54;;;;
2020/11/14 05:22:26;;;;;;;2.299999;1.8;;;;;;;8.52;73.31836;95701.54;;;;
2020/11/14 05:23:27;;;;;;;2.299999;1.8;;;;;;;8.52;73.31836;95701.54;;;;
2020/11/14 05:24:28;;;;;;;2.299999;1.8;;;;;;;8.52;73.31836;95701.54;;;;
2020/11/14 05:25:29;;;;;;;2.2;2;;;;;;;8.36;73.83594;95695.17;;;;
2020/11/14 05:26:31;;;;;;;2.2;2;;;;;;;8.36;73.83594;95695.17;;;;
2020/11/14 05:27:34;;;;;;;2.2;2;;;;;;;8.36;73.83594;95695.17;;;;
2020/11/14 05:28:35;;;;;;;2.2;2;;;;;;;8.36;73.83594;95695.17;;;;
2020/11/14 05:29:36;;;;;;;2.2;2;;;;;;;8.36;73.83594;95695.17;;;;
2020/11/14 05:30:37;;;;;;;2.2;2;;;;;;;8.36;73.83594;95695.17;;;;
2020/11/14 05:31:37;;;;;;;2.2;2;;;;;;;8.36;73.83594;95695.17;;;;
2020/11/14 05:32:39;;;;;;;2.2;2;;;;;;;8.36;73.83594;95695.17;;;;
2020/11/14 05:33:40;;;;;;;2.2;2;;;;;;;8.36;73.83594;95695.17;;;;
2020/11/14 05:34:42;;;;;;;2.2;2;;;;;;;8.36;73.83594;95695.17;;;;
2020/11/14 05:35:43;;;;;;;2.1;1.9;;;;;;;8.2;74.54199;95690.76;;;;
2020/11/14 05:36:52;;;;;;;2.1;1.9;;;;;;;8.2;74.54199;95690.76;;;;
2020/11/14 05:38:20;;;;;;;2.1;1.9;;;;;;;8.2;74.54199;95690.76;;;;
2020/11/14 05:39:23;;;;;;;2.1;1.9;;;;;;;8.2;74.54199;95690.76;;;;
2020/11/14 05:40:29;;;;;;;2.1;1.9;;;;;;;8.2;74.54199;95690.76;;;;
2020/11/14 05:41:30;;;;;;;2.1;1.9;;;;;;;8.2;74.54199;95690.76;;;;
2020/11/14 05:42:32;;;;;;;2.1;1.9;;;;;;;8.2;74.54199;95690.76;;;;
2020/11/14 05:43:35;;;;;;;2.1;1.9;;;;;;;8.2;74.54199;95690.76;;;;
2020/11/14 05:44:36;;;;;;;2.1;1.9;;;;;;;8.2;74.54199;95690.76;;;;
2020/11/14 05:45:37;;;;;;;2.1;1.9;;;;;;;8.2;74.54199;95690.76;;;;
2020/11/14 05:46:37;;;;;;;4.350001;2.9;;;;;;;7.84;75.17285;95684.53;;;;
2020/11/14 05:47:38;;;;;;;4.350001;2.9;;;;;;;7.84;75.17285;95684.53;;;;
2020/11/14 05:48:38;;;;;;;4.350001;2.9;;;;;;;7.84;75.17285;95684.53;;;;
2020/11/14 05:49:42;;;;;;;4.350001;2.9;;;;;;;7.84;75.17285;95684.53;;;;
2020/11/14 05:50:42;;;;;;;4.350001;2.9;;;;;;;7.84;75.17285;95684.53;;;;
2020/11/14 05:51:44;;;;;;;4.350001;2.9;;;;;;;7.84;75.17285;95684.53;;;;
2020/11/14 05:53:00;;;;;;;4.350001;2.9;;;;;;;7.84;75.17285;95684.53;;;;
2020/11/14 05:54:01;;;;;;;4.350001;2.9;;;;;;;7.84;75.17285;95684.53;;;;
2020/11/14 05:55:02;;;;;;;4.350001;2.9;;;;;;;7.84;75.17285;95684.53;;;;
2020/11/14 05:56:04;;;;;;;4.350001;2.9;;;;;;;7.84;75.17285;95684.53;;;;
2020/11/14 05:57:12;;;;;;;2.8;2.45;;;;;;;7.47;75.88086;95692.38;;;;
2020/11/14 05:58:18;;;;;;;2.8;2.45;;;;;;;7.47;75.88086;95692.38;;;;
2020/11/14 05:59:22;;;;;;;2.8;2.45;;;;;;;7.47;75.88086;95692.38;;;;